Rochefort, Belgium
Current Conditions -  °F | °C
As of 10:25 AM on Friday 24 Oct 2014 (Local Time) from EBFS Reporting Station
Broken Clouds Broken Clouds  
Wind Chill: 50°   Ceiling: 3500
Heat Index: 50°   Visibility: 6mi
Dew Point: 45°   Wind: 7mph
Humidity: 82%   Direction: 190°S
Pressure: 30.15"   Gusts: NA
Location:  50.16°N, 5.22°E
Report Text: EBFS 240825Z 19006KT 9999 SCT030 BKN035 10/07 Q1021 BLU BLU
Loading
Personal Weather Stations






























Interactive Weather Map New forecast layout! Learn more

10-Day Weather Forecast

Advertisements
Track Severe Weather on mobile